sensor_id;sensor_type;location;lat;lon;timestamp;temperature;humidity
48328;DHT22;34136;51.022;7.082;2022-08-20T00:02:42;22.00;9.00
48328;DHT22;34136;51.022;7.082;2022-08-20T00:05:36;22.00;9.00
48328;DHT22;34136;51.022;7.082;2022-08-20T00:08:24;22.00;9.00
48328;DHT22;34136;51.022;7.082;2022-08-20T00:11:14;22.00;9.20
48328;DHT22;34136;51.022;7.082;2022-08-20T00:14:04;21.90;9.30
48328;DHT22;34136;51.022;7.082;2022-08-20T00:16:50;22.00;9.20
48328;DHT22;34136;51.022;7.082;2022-08-20T00:19:37;21.90;10.00
48328;DHT22;34136;51.022;7.082;2022-08-20T00:22:23;21.90;9.40
48328;DHT22;34136;51.022;7.082;2022-08-20T00:25:10;22.00;9.10
48328;DHT22;34136;51.022;7.082;2022-08-20T00:27:57;22.00;9.20
48328;DHT22;34136;51.022;7.082;2022-08-20T00:30:44;21.90;10.70
48328;DHT22;34136;51.022;7.082;2022-08-20T00:33:31;21.80;10.90
48328;DHT22;34136;51.022;7.082;2022-08-20T00:36:19;21.80;11.00
48328;DHT22;34136;51.022;7.082;2022-08-20T00:39:06;21.80;11.20
48328;DHT22;34136;51.022;7.082;2022-08-20T00:41:52;21.80;11.20
48328;DHT22;34136;51.022;7.082;2022-08-20T00:44:44;21.70;11.10
48328;DHT22;34136;51.022;7.082;2022-08-20T00:47:31;21.80;11.60
48328;DHT22;34136;51.022;7.082;2022-08-20T00:50:20;21.80;12.90
48328;DHT22;34136;51.022;7.082;2022-08-20T00:53:07;21.70;13.40
48328;DHT22;34136;51.022;7.082;2022-08-20T00:55:54;21.70;13.60
48328;DHT22;34136;51.022;7.082;2022-08-20T00:58:42;21.60;14.10
48328;DHT22;34136;51.022;7.082;2022-08-20T01:01:29;21.60;14.50
48328;DHT22;34136;51.022;7.082;2022-08-20T01:04:16;21.60;15.00
48328;DHT22;34136;51.022;7.082;2022-08-20T01:07:04;21.50;15.50
48328;DHT22;34136;51.022;7.082;2022-08-20T01:09:50;21.60;15.50
48328;DHT22;34136;51.022;7.082;2022-08-20T01:12:40;21.50;15.50
48328;DHT22;34136;51.022;7.082;2022-08-20T01:15:28;21.40;16.00
48328;DHT22;34136;51.022;7.082;2022-08-20T01:18:19;21.30;16.20
48328;DHT22;34136;51.022;7.082;2022-08-20T01:21:07;21.30;16.40
48328;DHT22;34136;51.022;7.082;2022-08-20T01:24:07;21.30;16.40
48328;DHT22;34136;51.022;7.082;2022-08-20T01:27:00;21.30;15.70
48328;DHT22;34136;51.022;7.082;2022-08-20T01:29:48;21.30;15.90
48328;DHT22;34136;51.022;7.082;2022-08-20T01:32:34;21.30;15.60
48328;DHT22;34136;51.022;7.082;2022-08-20T01:35:21;21.30;16.10
48328;DHT22;34136;51.022;7.082;2022-08-20T01:38:08;21.30;16.30
48328;DHT22;34136;51.022;7.082;2022-08-20T01:44:03;21.30;16.10
48328;DHT22;34136;51.022;7.082;2022-08-20T01:46:51;21.40;16.20
48328;DHT22;34136;51.022;7.082;2022-08-20T01:49:41;21.40;15.90
48328;DHT22;34136;51.022;7.082;2022-08-20T01:55:27;21.40;15.60
48328;DHT22;34136;51.022;7.082;2022-08-20T01:58:13;21.40;15.40
48328;DHT22;34136;51.022;7.082;2022-08-20T02:01:00;21.30;15.10
48328;DHT22;34136;51.022;7.082;2022-08-20T02:03:47;21.20;16.40
48328;DHT22;34136;51.022;7.082;2022-08-20T02:06:39;21.30;15.60
48328;DHT22;34136;51.022;7.082;2022-08-20T02:09:30;21.30;15.40
48328;DHT22;34136;51.022;7.082;2022-08-20T02:12:17;21.20;14.90
48328;DHT22;34136;51.022;7.082;2022-08-20T02:15:04;21.10;15.00
48328;DHT22;34136;51.022;7.082;2022-08-20T02:17:51;21.00;14.50
48328;DHT22;34136;51.022;7.082;2022-08-20T02:20:38;21.10;14.70
48328;DHT22;34136;51.022;7.082;2022-08-20T02:23:25;21.00;14.80
48328;DHT22;34136;51.022;7.082;2022-08-20T02:26:12;21.00;15.10
48328;DHT22;34136;51.022;7.082;2022-08-20T02:28:58;21.10;14.70
48328;DHT22;34136;51.022;7.082;2022-08-20T02:31:45;21.10;14.10
48328;DHT22;34136;51.022;7.082;2022-08-20T02:34:32;21.20;13.50
48328;DHT22;34136;51.022;7.082;2022-08-20T02:37:18;21.30;13.30
48328;DHT22;34136;51.022;7.082;2022-08-20T02:40:07;21.20;13.40
48328;DHT22;34136;51.022;7.082;2022-08-20T02:42:54;21.20;13.60
48328;DHT22;34136;51.022;7.082;2022-08-20T02:45:40;21.20;13.90
48328;DHT22;34136;51.022;7.082;2022-08-20T02:48:26;21.20;14.30
48328;DHT22;34136;51.022;7.082;2022-08-20T02:51:12;21.20;14.00
48328;DHT22;34136;51.022;7.082;2022-08-20T02:53:59;21.20;14.10
48328;DHT22;34136;51.022;7.082;2022-08-20T02:56:45;21.20;13.80
48328;DHT22;34136;51.022;7.082;2022-08-20T02:59:31;21.30;13.60
48328;DHT22;34136;51.022;7.082;2022-08-20T03:02:17;21.20;13.60
48328;DHT22;34136;51.022;7.082;2022-08-20T03:05:04;21.20;13.40
48328;DHT22;34136;51.022;7.082;2022-08-20T03:07:52;21.20;13.20
48328;DHT22;34136;51.022;7.082;2022-08-20T03:10:40;21.20;13.10
48328;DHT22;34136;51.022;7.082;2022-08-20T03:13:26;21.20;13.40
48328;DHT22;34136;51.022;7.082;2022-08-20T03:16:13;21.20;13.00
48328;DHT22;34136;51.022;7.082;2022-08-20T03:19:00;21.20;12.80
48328;DHT22;34136;51.022;7.082;2022-08-20T03:21:46;21.20;13.10
48328;DHT22;34136;51.022;7.082;2022-08-20T03:24:32;21.10;13.50
48328;DHT22;34136;51.022;7.082;2022-08-20T03:27:18;21.10;13.60
48328;DHT22;34136;51.022;7.082;2022-08-20T03:30:07;21.10;13.80
48328;DHT22;34136;51.022;7.082;2022-08-20T03:32:54;21.10;13.70
48328;DHT22;34136;51.022;7.082;2022-08-20T03:35:40;21.10;13.80
48328;DHT22;34136;51.022;7.082;2022-08-20T03:38:26;21.10;13.70
48328;DHT22;34136;51.022;7.082;2022-08-20T03:41:13;21.10;13.60
48328;DHT22;34136;51.022;7.082;2022-08-20T03:43:59;21.20;13.40
48328;DHT22;34136;51.022;7.082;2022-08-20T03:46:45;21.20;13.20
48328;DHT22;34136;51.022;7.082;2022-08-20T03:49:32;21.20;13.40
48328;DHT22;34136;51.022;7.082;2022-08-20T03:52:19;21.10;13.40
48328;DHT22;34136;51.022;7.082;2022-08-20T03:55:07;21.10;13.40
48328;DHT22;34136;51.022;7.082;2022-08-20T03:57:57;21.10;13.60
48328;DHT22;34136;51.022;7.082;2022-08-20T04:00:47;21.20;13.30
48328;DHT22;34136;51.022;7.082;2022-08-20T04:03:34;21.20;13.10
48328;DHT22;34136;51.022;7.082;2022-08-20T04:06:20;21.20;13.00
48328;DHT22;34136;51.022;7.082;2022-08-20T04:09:06;21.20;12.80
48328;DHT22;34136;51.022;7.082;2022-08-20T04:11:53;21.20;13.10
48328;DHT22;34136;51.022;7.082;2022-08-20T04:14:39;21.20;12.70
48328;DHT22;34136;51.022;7.082;2022-08-20T04:17:25;21.20;12.70
48328;DHT22;34136;51.022;7.082;2022-08-20T04:20:14;21.20;12.60
48328;DHT22;34136;51.022;7.082;2022-08-20T04:23:01;21.20;13.10
48328;DHT22;34136;51.022;7.082;2022-08-20T04:25:47;21.20;13.10
48328;DHT22;34136;51.022;7.082;2022-08-20T04:28:34;21.10;13.40
48328;DHT22;34136;51.022;7.082;2022-08-20T04:31:20;21.10;13.40
48328;DHT22;34136;51.022;7.082;2022-08-20T04:34:07;21.10;13.20
48328;DHT22;34136;51.022;7.082;2022-08-20T04:36:54;21.10;13.30
48328;DHT22;34136;51.022;7.082;2022-08-20T04:39:40;21.10;13.00
48328;DHT22;34136;51.022;7.082;2022-08-20T04:42:26;21.20;12.30
48328;DHT22;34136;51.022;7.082;2022-08-20T04:45:12;21.20;12.20
48328;DHT22;34136;51.022;7.082;2022-08-20T04:48:04;21.20;12.20
48328;DHT22;34136;51.022;7.082;2022-08-20T04:50:51;21.20;12.50
48328;DHT22;34136;51.022;7.082;2022-08-20T04:53:37;21.20;11.80
48328;DHT22;34136;51.022;7.082;2022-08-20T04:56:27;21.20;12.10
48328;DHT22;34136;51.022;7.082;2022-08-20T04:59:13;21.20;12.10
48328;DHT22;34136;51.022;7.082;2022-08-20T05:01:59;21.20;11.80
48328;DHT22;34136;51.022;7.082;2022-08-20T05:04:46;21.20;12.10
48328;DHT22;34136;51.022;7.082;2022-08-20T05:07:40;21.10;12.90
48328;DHT22;34136;51.022;7.082;2022-08-20T05:10:27;21.00;14.20
48328;DHT22;34136;51.022;7.082;2022-08-20T05:13:14;20.90;15.10
48328;DHT22;34136;51.022;7.082;2022-08-20T05:16:00;20.80;17.50
48328;DHT22;34136;51.022;7.082;2022-08-20T05:18:47;20.80;17.60
48328;DHT22;34136;51.022;7.082;2022-08-20T05:21:33;20.80;18.80
48328;DHT22;34136;51.022;7.082;2022-08-20T05:24:20;20.80;18.50
48328;DHT22;34136;51.022;7.082;2022-08-20T05:27:06;20.70;18.80
48328;DHT22;34136;51.022;7.082;2022-08-20T05:30:05;20.60;19.30
48328;DHT22;34136;51.022;7.082;2022-08-20T05:32:51;20.50;21.60
48328;DHT22;34136;51.022;7.082;2022-08-20T05:35:38;20.30;22.00
48328;DHT22;34136;51.022;7.082;2022-08-20T05:38:27;20.30;23.40
48328;DHT22;34136;51.022;7.082;2022-08-20T05:41:14;20.20;23.60
48328;DHT22;34136;51.022;7.082;2022-08-20T05:44:00;20.30;24.40
48328;DHT22;34136;51.022;7.082;2022-08-20T05:46:46;20.40;23.90
48328;DHT22;34136;51.022;7.082;2022-08-20T05:49:33;20.40;23.60
48328;DHT22;34136;51.022;7.082;2022-08-20T05:52:19;20.40;23.30
48328;DHT22;34136;51.022;7.082;2022-08-20T05:55:08;20.40;23.50
48328;DHT22;34136;51.022;7.082;2022-08-20T05:58:02;20.50;23.50
48328;DHT22;34136;51.022;7.082;2022-08-20T06:00:50;20.50;23.30
48328;DHT22;34136;51.022;7.082;2022-08-20T06:03:36;20.50;23.00
48328;DHT22;34136;51.022;7.082;2022-08-20T06:06:22;20.50;24.50
48328;DHT22;34136;51.022;7.082;2022-08-20T06:09:08;20.50;24.80
48328;DHT22;34136;51.022;7.082;2022-08-20T06:11:55;20.40;23.60
48328;DHT22;34136;51.022;7.082;2022-08-20T06:14:42;20.40;24.50
48328;DHT22;34136;51.022;7.082;2022-08-20T06:17:28;20.30;25.00
48328;DHT22;34136;51.022;7.082;2022-08-20T06:20:14;20.40;25.10
48328;DHT22;34136;51.022;7.082;2022-08-20T06:23:00;20.40;24.10
48328;DHT22;34136;51.022;7.082;2022-08-20T06:25:46;20.30;24.80
48328;DHT22;34136;51.022;7.082;2022-08-20T06:28:33;20.30;24.10
48328;DHT22;34136;51.022;7.082;2022-08-20T06:31:20;20.30;25.00
48328;DHT22;34136;51.022;7.082;2022-08-20T06:34:06;20.20;24.30
48328;DHT22;34136;51.022;7.082;2022-08-20T06:36:54;20.20;25.20
48328;DHT22;34136;51.022;7.082;2022-08-20T06:39:41;20.20;25.00
48328;DHT22;34136;51.022;7.082;2022-08-20T06:42:27;20.20;24.70
48328;DHT22;34136;51.022;7.082;2022-08-20T06:45:17;20.20;25.90
48328;DHT22;34136;51.022;7.082;2022-08-20T06:48:12;20.20;25.80
48328;DHT22;34136;51.022;7.082;2022-08-20T06:50:59;20.10;25.90
48328;DHT22;34136;51.022;7.082;2022-08-20T06:53:45;20.10;25.30
48328;DHT22;34136;51.022;7.082;2022-08-20T06:56:31;20.10;24.60
48328;DHT22;34136;51.022;7.082;2022-08-20T06:59:18;20.10;24.40
48328;DHT22;34136;51.022;7.082;2022-08-20T07:02:04;20.20;24.80
48328;DHT22;34136;51.022;7.082;2022-08-20T07:04:51;20.10;24.80
48328;DHT22;34136;51.022;7.082;2022-08-20T07:07:37;20.20;25.20
48328;DHT22;34136;51.022;7.082;2022-08-20T07:10:24;20.10;22.70
48328;DHT22;34136;51.022;7.082;2022-08-20T07:13:11;19.90;23.00
48328;DHT22;34136;51.022;7.082;2022-08-20T07:15:58;19.80;24.00
48328;DHT22;34136;51.022;7.082;2022-08-20T07:18:44;19.70;24.60
48328;DHT22;34136;51.022;7.082;2022-08-20T07:21:30;19.70;23.90
48328;DHT22;34136;51.022;7.082;2022-08-20T07:24:17;19.80;24.00
48328;DHT22;34136;51.022;7.082;2022-08-20T07:27:03;19.80;24.30
48328;DHT22;34136;51.022;7.082;2022-08-20T07:29:50;19.90;24.90
48328;DHT22;34136;51.022;7.082;2022-08-20T07:32:36;19.90;23.40
48328;DHT22;34136;51.022;7.082;2022-08-20T07:35:23;19.80;22.60
48328;DHT22;34136;51.022;7.082;2022-08-20T07:38:17;19.80;22.40
48328;DHT22;34136;51.022;7.082;2022-08-20T07:41:10;19.80;23.40
48328;DHT22;34136;51.022;7.082;2022-08-20T07:43:56;19.90;21.50
48328;DHT22;34136;51.022;7.082;2022-08-20T07:46:43;19.90;21.70
48328;DHT22;34136;51.022;7.082;2022-08-20T07:49:29;19.90;21.10
48328;DHT22;34136;51.022;7.082;2022-08-20T07:52:15;20.00;21.80
48328;DHT22;34136;51.022;7.082;2022-08-20T07:55:08;19.90;20.60
48328;DHT22;34136;51.022;7.082;2022-08-20T07:57:57;19.90;19.70
48328;DHT22;34136;51.022;7.082;2022-08-20T08:00:43;20.00;20.20
48328;DHT22;34136;51.022;7.082;2022-08-20T08:03:29;20.00;19.70
48328;DHT22;34136;51.022;7.082;2022-08-20T08:06:21;20.00;19.10
48328;DHT22;34136;51.022;7.082;2022-08-20T08:09:12;20.20;19.50
48328;DHT22;34136;51.022;7.082;2022-08-20T08:11:59;20.20;18.80
48328;DHT22;34136;51.022;7.082;2022-08-20T08:14:46;20.20;18.50
48328;DHT22;34136;51.022;7.082;2022-08-20T08:17:33;20.30;17.80
48328;DHT22;34136;51.022;7.082;2022-08-20T08:20:19;20.30;18.30
48328;DHT22;34136;51.022;7.082;2022-08-20T08:23:07;20.30;18.00
48328;DHT22;34136;51.022;7.082;2022-08-20T08:25:54;20.30;17.90
48328;DHT22;34136;51.022;7.082;2022-08-20T08:28:41;20.30;18.00
48328;DHT22;34136;51.022;7.082;2022-08-20T08:31:28;20.30;17.40
48328;DHT22;34136;51.022;7.082;2022-08-20T08:34:14;20.30;17.00
48328;DHT22;34136;51.022;7.082;2022-08-20T08:37:01;20.30;17.40
48328;DHT22;34136;51.022;7.082;2022-08-20T08:39:47;20.30;17.40
48328;DHT22;34136;51.022;7.082;2022-08-20T08:42:34;20.20;16.30
48328;DHT22;34136;51.022;7.082;2022-08-20T08:45:22;20.20;15.90
48328;DHT22;34136;51.022;7.082;2022-08-20T08:48:12;20.20;16.70
48328;DHT22;34136;51.022;7.082;2022-08-20T08:51:00;20.20;15.90
48328;DHT22;34136;51.022;7.082;2022-08-20T08:53:51;20.30;14.70
48328;DHT22;34136;51.022;7.082;2022-08-20T08:56:39;20.30;13.60
48328;DHT22;34136;51.022;7.082;2022-08-20T08:59:28;20.30;14.50
48328;DHT22;34136;51.022;7.082;2022-08-20T09:02:20;20.40;14.30
48328;DHT22;34136;51.022;7.082;2022-08-20T09:05:13;20.40;13.30
48328;DHT22;34136;51.022;7.082;2022-08-20T09:08:02;20.30;14.80
48328;DHT22;34136;51.022;7.082;2022-08-20T09:10:49;20.30;14.70
48328;DHT22;34136;51.022;7.082;2022-08-20T09:13:36;20.30;13.90
48328;DHT22;34136;51.022;7.082;2022-08-20T09:16:23;20.30;14.10
48328;DHT22;34136;51.022;7.082;2022-08-20T09:19:10;20.30;13.20
48328;DHT22;34136;51.022;7.082;2022-08-20T09:21:56;20.20;12.60
48328;DHT22;34136;51.022;7.082;2022-08-20T09:24:43;20.10;12.70
48328;DHT22;34136;51.022;7.082;2022-08-20T09:27:29;20.00;13.50
48328;DHT22;34136;51.022;7.082;2022-08-20T09:30:16;20.10;13.00
48328;DHT22;34136;51.022;7.082;2022-08-20T09:33:02;20.10;13.50
48328;DHT22;34136;51.022;7.082;2022-08-20T09:35:49;20.00;13.80
48328;DHT22;34136;51.022;7.082;2022-08-20T09:38:35;20.00;13.20
48328;DHT22;34136;51.022;7.082;2022-08-20T09:41:21;19.90;12.60
48328;DHT22;34136;51.022;7.082;2022-08-20T09:44:08;19.80;13.80
48328;DHT22;34136;51.022;7.082;2022-08-20T09:46:54;19.90;13.00
48328;DHT22;34136;51.022;7.082;2022-08-20T09:49:40;19.90;13.30
48328;DHT22;34136;51.022;7.082;2022-08-20T09:52:35;20.00;12.50
48328;DHT22;34136;51.022;7.082;2022-08-20T09:55:34;20.10;12.70
48328;DHT22;34136;51.022;7.082;2022-08-20T09:58:36;20.10;12.00
48328;DHT22;34136;51.022;7.082;2022-08-20T10:01:25;20.00;12.20
48328;DHT22;34136;51.022;7.082;2022-08-20T10:04:11;20.00;11.80
48328;DHT22;34136;51.022;7.082;2022-08-20T10:06:57;20.20;12.20
48328;DHT22;34136;51.022;7.082;2022-08-20T10:09:44;20.40;9.90
48328;DHT22;34136;51.022;7.082;2022-08-20T10:12:30;20.40;11.20
48328;DHT22;34136;51.022;7.082;2022-08-20T10:15:17;20.50;10.60
48328;DHT22;34136;51.022;7.082;2022-08-20T10:18:04;20.40;10.20
48328;DHT22;34136;51.022;7.082;2022-08-20T10:20:51;20.50;10.20
48328;DHT22;34136;51.022;7.082;2022-08-20T10:23:37;20.60;9.20
48328;DHT22;34136;51.022;7.082;2022-08-20T10:26:24;20.60;9.50
48328;DHT22;34136;51.022;7.082;2022-08-20T10:29:10;20.80;8.60
48328;DHT22;34136;51.022;7.082;2022-08-20T10:32:02;20.80;7.50
48328;DHT22;34136;51.022;7.082;2022-08-20T10:34:52;20.80;7.50
48328;DHT22;34136;51.022;7.082;2022-08-20T10:37:39;20.90;8.40
48328;DHT22;34136;51.022;7.082;2022-08-20T10:40:25;20.90;5.70
48328;DHT22;34136;51.022;7.082;2022-08-20T10:50:40;21.10;5.60
48328;DHT22;34136;51.022;7.082;2022-08-20T10:53:26;21.30;4.40
48328;DHT22;34136;51.022;7.082;2022-08-20T10:56:12;21.40;4.60
48328;DHT22;34136;51.022;7.082;2022-08-20T10:58:58;21.50;3.90
48328;DHT22;34136;51.022;7.082;2022-08-20T11:01:44;21.70;4.10
48328;DHT22;34136;51.022;7.082;2022-08-20T11:04:31;21.80;3.50
48328;DHT22;34136;51.022;7.082;2022-08-20T11:07:27;21.80;1.00
48328;DHT22;34136;51.022;7.082;2022-08-20T11:10:13;22.00;1.30
48328;DHT22;34136;51.022;7.082;2022-08-20T11:13:01;21.90;1.00
48328;DHT22;34136;51.022;7.082;2022-08-20T11:15:47;21.90;1.00
48328;DHT22;34136;51.022;7.082;2022-08-20T11:18:33;21.90;1.00
48328;DHT22;34136;51.022;7.082;2022-08-20T11:21:25;22.00;1.00
48328;DHT22;34136;51.022;7.082;2022-08-20T11:46:36;22.30;9.20
48328;DHT22;34136;51.022;7.082;2022-08-20T11:49:22;21.70;9.30
48328;DHT22;34136;51.022;7.082;2022-08-20T11:52:08;21.60;14.50
48328;DHT22;34136;51.022;7.082;2022-08-20T11:54:58;21.50;10.80
48328;DHT22;34136;51.022;7.082;2022-08-20T11:58:24;21.50;13.80
48328;DHT22;34136;51.022;7.082;2022-08-20T12:01:25;21.50;6.60
48328;DHT22;34136;51.022;7.082;2022-08-20T12:12:38;22.10;1.70
48328;DHT22;34136;51.022;7.082;2022-08-20T12:15:24;22.50;1.00
48328;DHT22;34136;51.022;7.082;2022-08-20T12:18:10;22.60;1.00
48328;DHT22;34136;51.022;7.082;2022-08-20T12:20:57;22.60;1.00
48328;DHT22;34136;51.022;7.082;2022-08-20T12:23:43;22.60;1.00
48328;DHT22;34136;51.022;7.082;2022-08-20T12:26:29;22.60;1.00
48328;DHT22;34136;51.022;7.082;2022-08-20T12:29:15;22.50;1.00
48328;DHT22;34136;51.022;7.082;2022-08-20T12:32:02;22.60;1.00
48328;DHT22;34136;51.022;7.082;2022-08-20T12:34:48;22.80;1.00
48328;DHT22;34136;51.022;7.082;2022-08-20T12:37:35;23.10;1.00
48328;DHT22;34136;51.022;7.082;2022-08-20T12:40:25;23.40;1.00
48328;DHT22;34136;51.022;7.082;2022-08-20T12:43:11;23.60;1.00
48328;DHT22;34136;51.022;7.082;2022-08-20T12:45:57;23.80;1.00
48328;DHT22;34136;51.022;7.082;2022-08-20T12:48:43;24.10;1.00
48328;DHT22;34136;51.022;7.082;2022-08-20T12:51:29;24.20;1.00
48328;DHT22;34136;51.022;7.082;2022-08-20T12:54:16;24.40;1.00
48328;DHT22;34136;51.022;7.082;2022-08-20T12:57:02;24.50;1.00
48328;DHT22;34136;51.022;7.082;2022-08-20T12:59:48;24.90;1.00
48328;DHT22;34136;51.022;7.082;2022-08-20T13:02:34;25.00;1.00
48328;DHT22;34136;51.022;7.082;2022-08-20T13:05:21;25.00;1.00
48328;DHT22;34136;51.022;7.082;2022-08-20T13:08:09;25.10;1.00
48328;DHT22;34136;51.022;7.082;2022-08-20T13:10:56;25.30;1.00
48328;DHT22;34136;51.022;7.082;2022-08-20T13:13:42;25.30;1.00
48328;DHT22;34136;51.022;7.082;2022-08-20T13:16:28;25.60;1.00
48328;DHT22;34136;51.022;7.082;2022-08-20T13:19:15;25.70;1.00
48328;DHT22;34136;51.022;7.082;2022-08-20T13:22:01;25.50;1.00
48328;DHT22;34136;51.022;7.082;2022-08-20T13:24:47;25.60;1.00
48328;DHT22;34136;51.022;7.082;2022-08-20T13:27:35;25.60;1.00
48328;DHT22;34136;51.022;7.082;2022-08-20T13:30:22;25.80;1.00
48328;DHT22;34136;51.022;7.082;2022-08-20T13:33:08;26.00;1.00
48328;DHT22;34136;51.022;7.082;2022-08-20T13:35:55;25.90;1.00
48328;DHT22;34136;51.022;7.082;2022-08-20T13:38:41;26.00;1.00
48328;DHT22;34136;51.022;7.082;2022-08-20T13:41:27;26.00;1.00
48328;DHT22;34136;51.022;7.082;2022-08-20T13:44:13;25.90;1.00
48328;DHT22;34136;51.022;7.082;2022-08-20T13:47:01;26.10;1.00
48328;DHT22;34136;51.022;7.082;2022-08-20T13:50:02;26.30;1.00
48328;DHT22;34136;51.022;7.082;2022-08-20T13:52:48;26.20;1.00
48328;DHT22;34136;51.022;7.082;2022-08-20T13:55:34;26.40;1.00
48328;DHT22;34136;51.022;7.082;2022-08-20T13:58:20;26.40;1.00
48328;DHT22;34136;51.022;7.082;2022-08-20T14:01:07;26.40;1.00
48328;DHT22;34136;51.022;7.082;2022-08-20T14:03:53;26.30;1.00
48328;DHT22;34136;51.022;7.082;2022-08-20T14:06:39;26.00;1.00
48328;DHT22;34136;51.022;7.082;2022-08-20T14:09:25;25.90;1.00
48328;DHT22;34136;51.022;7.082;2022-08-20T14:12:13;26.00;1.00
48328;DHT22;34136;51.022;7.082;2022-08-20T14:14:59;26.10;1.00
48328;DHT22;34136;51.022;7.082;2022-08-20T14:17:51;26.20;1.00
48328;DHT22;34136;51.022;7.082;2022-08-20T14:20:37;26.20;1.00
48328;DHT22;34136;51.022;7.082;2022-08-20T14:23:23;26.20;1.00
48328;DHT22;34136;51.022;7.082;2022-08-20T14:26:10;26.20;1.00
48328;DHT22;34136;51.022;7.082;2022-08-20T14:28:56;26.30;1.00
48328;DHT22;34136;51.022;7.082;2022-08-20T14:31:42;26.20;1.00
48328;DHT22;34136;51.022;7.082;2022-08-20T14:34:28;26.00;1.00
48328;DHT22;34136;51.022;7.082;2022-08-20T14:37:18;25.80;1.00
48328;DHT22;34136;51.022;7.082;2022-08-20T14:40:07;25.80;1.00
48328;DHT22;34136;51.022;7.082;2022-08-20T14:42:54;25.90;1.00
48328;DHT22;34136;51.022;7.082;2022-08-20T14:45:41;25.90;1.00
48328;DHT22;34136;51.022;7.082;2022-08-20T14:48:27;25.90;1.00
48328;DHT22;34136;51.022;7.082;2022-08-20T14:51:13;25.80;1.00
48328;DHT22;34136;51.022;7.082;2022-08-20T14:53:59;25.80;1.00
48328;DHT22;34136;51.022;7.082;2022-08-20T14:56:46;25.90;1.00
48328;DHT22;34136;51.022;7.082;2022-08-20T14:59:32;26.20;1.00
48328;DHT22;34136;51.022;7.082;2022-08-20T15:02:18;26.30;1.00
48328;DHT22;34136;51.022;7.082;2022-08-20T15:05:06;26.30;1.00
48328;DHT22;34136;51.022;7.082;2022-08-20T15:07:52;26.10;1.00
48328;DHT22;34136;51.022;7.082;2022-08-20T15:10:38;26.20;1.00
48328;DHT22;34136;51.022;7.082;2022-08-20T15:13:24;26.30;1.00
48328;DHT22;34136;51.022;7.082;2022-08-20T15:16:10;26.30;1.00
48328;DHT22;34136;51.022;7.082;2022-08-20T15:18:57;26.30;1.00
48328;DHT22;34136;51.022;7.082;2022-08-20T15:44:08;26.00;1.00
48328;DHT22;34136;51.022;7.082;2022-08-20T15:46:54;26.10;1.00
48328;DHT22;34136;51.022;7.082;2022-08-20T15:49:41;26.10;1.00
48328;DHT22;34136;51.022;7.082;2022-08-20T15:52:32;26.10;1.00
48328;DHT22;34136;51.022;7.082;2022-08-20T15:55:21;26.00;1.00
48328;DHT22;34136;51.022;7.082;2022-08-20T15:58:16;25.90;1.00
48328;DHT22;34136;51.022;7.082;2022-08-20T16:01:22;25.90;1.00
48328;DHT22;34136;51.022;7.082;2022-08-20T16:07:31;25.80;1.00
48328;DHT22;34136;51.022;7.082;2022-08-20T16:10:29;25.70;1.00
48328;DHT22;34136;51.022;7.082;2022-08-20T16:13:28;25.90;1.00
48328;DHT22;34136;51.022;7.082;2022-08-20T16:19:24;26.00;1.00
48328;DHT22;34136;51.022;7.082;2022-08-20T16:22:13;25.80;1.00
48328;DHT22;34136;51.022;7.082;2022-08-20T16:25:00;25.60;1.00
48328;DHT22;34136;51.022;7.082;2022-08-20T16:28:04;25.50;1.00
48328;DHT22;34136;51.022;7.082;2022-08-20T16:31:01;25.60;1.00
48328;DHT22;34136;51.022;7.082;2022-08-20T16:43:31;25.70;1.00
48328;DHT22;34136;51.022;7.082;2022-08-20T16:46:23;25.60;1.00
48328;DHT22;34136;51.022;7.082;2022-08-20T16:49:13;25.50;1.00
48328;DHT22;34136;51.022;7.082;2022-08-20T16:51:59;25.30;1.00
48328;DHT22;34136;51.022;7.082;2022-08-20T16:54:46;25.20;1.00
48328;DHT22;34136;51.022;7.082;2022-08-20T16:57:32;25.00;1.00
48328;DHT22;34136;51.022;7.082;2022-08-20T17:00:20;25.10;1.00
48328;DHT22;34136;51.022;7.082;2022-08-20T17:03:25;25.20;1.00
48328;DHT22;34136;51.022;7.082;2022-08-20T17:06:21;25.10;1.00
48328;DHT22;34136;51.022;7.082;2022-08-20T17:09:14;25.00;1.00
48328;DHT22;34136;51.022;7.082;2022-08-20T17:12:22;25.00;1.00
48328;DHT22;34136;51.022;7.082;2022-08-20T17:15:41;25.10;1.00
48328;DHT22;34136;51.022;7.082;2022-08-20T17:18:25;25.20;1.00
48328;DHT22;34136;51.022;7.082;2022-08-20T17:21:18;25.20;1.00
48328;DHT22;34136;51.022;7.082;2022-08-20T17:24:24;25.20;1.00
48328;DHT22;34136;51.022;7.082;2022-08-20T17:34:41;25.20;1.00
48328;DHT22;34136;51.022;7.082;2022-08-20T17:37:35;25.10;1.00
48328;DHT22;34136;51.022;7.082;2022-08-20T17:40:28;25.10;1.00
48328;DHT22;34136;51.022;7.082;2022-08-20T17:43:24;25.10;1.00
48328;DHT22;34136;51.022;7.082;2022-08-20T21:37:34;18.00;5.90
48328;DHT22;34136;51.022;7.082;2022-08-20T21:40:20;18.00;5.90
48328;DHT22;34136;51.022;7.082;2022-08-20T21:43:06;17.80;7.00
48328;DHT22;34136;51.022;7.082;2022-08-20T21:45:52;17.80;7.10
48328;DHT22;34136;51.022;7.082;2022-08-20T21:48:39;17.80;6.90
48328;DHT22;34136;51.022;7.082;2022-08-20T21:51:25;17.80;7.50
48328;DHT22;34136;51.022;7.082;2022-08-20T21:54:11;17.80;6.40
48328;DHT22;34136;51.022;7.082;2022-08-20T21:57:03;17.80;6.30
48328;DHT22;34136;51.022;7.082;2022-08-20T21:59:50;17.80;6.80
48328;DHT22;34136;51.022;7.082;2022-08-20T22:02:37;17.80;6.50
48328;DHT22;34136;51.022;7.082;2022-08-20T22:05:23;17.60;7.10
48328;DHT22;34136;51.022;7.082;2022-08-20T22:08:10;17.50;8.00
48328;DHT22;34136;51.022;7.082;2022-08-20T22:10:57;17.50;8.30
48328;DHT22;34136;51.022;7.082;2022-08-20T22:13:43;17.40;8.30
48328;DHT22;34136;51.022;7.082;2022-08-20T22:16:30;17.50;8.10
48328;DHT22;34136;51.022;7.082;2022-08-20T22:19:18;17.50;7.30
48328;DHT22;34136;51.022;7.082;2022-08-20T22:22:04;17.40;7.50
48328;DHT22;34136;51.022;7.082;2022-08-20T22:24:50;17.30;8.50
48328;DHT22;34136;51.022;7.082;2022-08-20T22:27:36;17.20;8.70
48328;DHT22;34136;51.022;7.082;2022-08-20T22:30:23;17.20;9.00
48328;DHT22;34136;51.022;7.082;2022-08-20T22:33:13;17.30;8.80
48328;DHT22;34136;51.022;7.082;2022-08-20T22:36:00;17.30;8.40
48328;DHT22;34136;51.022;7.082;2022-08-20T22:38:46;17.20;8.30
48328;DHT22;34136;51.022;7.082;2022-08-20T22:41:32;17.10;8.70
48328;DHT22;34136;51.022;7.082;2022-08-20T22:44:19;17.00;9.20
48328;DHT22;34136;51.022;7.082;2022-08-20T22:47:07;17.00;9.50
48328;DHT22;34136;51.022;7.082;2022-08-20T22:49:55;16.90;9.50
48328;DHT22;34136;51.022;7.082;2022-08-20T22:52:42;16.80;10.30
48328;DHT22;34136;51.022;7.082;2022-08-20T22:55:29;16.90;9.90
48328;DHT22;34136;51.022;7.082;2022-08-20T22:58:15;16.80;10.00
48328;DHT22;34136;51.022;7.082;2022-08-20T23:01:03;16.80;10.00
48328;DHT22;34136;51.022;7.082;2022-08-20T23:03:49;16.70;10.60
48328;DHT22;34136;51.022;7.082;2022-08-20T23:06:35;16.60;11.00
48328;DHT22;34136;51.022;7.082;2022-08-20T23:09:21;16.60;11.20
48328;DHT22;34136;51.022;7.082;2022-08-20T23:12:12;16.60;11.10